createdAt,value
2019-03-15T00:02:04.816Z,3.70
2019-03-15T00:04:34.255Z,2.22
2019-03-15T00:07:03.720Z,2.30
2019-03-15T00:09:33.157Z,3.05
2019-03-15T00:12:02.694Z,2.57
2019-03-15T00:14:32.156Z,2.50
2019-03-15T00:17:01.760Z,2.80
2019-03-15T00:19:31.361Z,3.23
2019-03-15T00:22:01.075Z,2.40
2019-03-15T00:24:30.603Z,2.60
2019-03-15T00:27:00.211Z,3.00
2019-03-15T00:29:29.816Z,2.30
2019-03-15T00:31:59.280Z,2.90
2019-03-15T00:34:28.732Z,2.57
2019-03-15T00:36:58.196Z,2.57
2019-03-15T00:39:27.738Z,2.67
2019-03-15T00:41:57.257Z,2.80
2019-03-15T00:44:27.543Z,2.27
2019-03-15T00:46:57.007Z,2.30
2019-03-15T00:49:26.469Z,3.58
2019-03-15T00:51:56.088Z,2.70
2019-03-15T00:54:25.675Z,2.73
2019-03-15T00:56:55.160Z,2.67
2019-03-15T00:59:24.659Z,2.25
2019-03-15T01:01:54.099Z,2.73
2019-03-15T01:04:23.554Z,2.33
2019-03-15T01:06:53.025Z,2.97
2019-03-15T01:09:22.549Z,2.40
2019-03-15T01:11:52.145Z,3.00
2019-03-15T01:14:21.735Z,2.90
2019-03-15T01:16:51.321Z,2.27
2019-03-15T01:19:21.011Z,2.45
2019-03-15T01:21:50.490Z,2.70
2019-03-15T01:24:20.072Z,2.62
2019-03-15T01:26:49.608Z,2.77
2019-03-15T01:29:19.287Z,3.27
2019-03-15T01:31:48.535Z,2.47
2019-03-15T01:34:18.020Z,2.30
2019-03-15T01:39:08.395Z,2.77
2019-03-15T01:41:37.824Z,2.20
2019-03-15T01:44:07.374Z,3.13
2019-03-15T01:46:36.796Z,2.25
2019-03-15T01:49:06.289Z,3.33
2019-03-15T01:51:35.726Z,2.60
2019-03-15T01:54:05.293Z,2.50
2019-03-15T01:56:34.807Z,2.70
2019-03-15T01:59:04.351Z,2.60
2019-03-15T02:01:33.795Z,2.37
2019-03-15T02:04:03.325Z,3.30
2019-03-15T02:06:32.873Z,3.10
2019-03-15T02:09:02.525Z,2.30
2019-03-15T02:11:32.142Z,2.97
2019-03-15T02:14:01.779Z,2.25
2019-03-15T02:16:31.433Z,2.30
2019-03-15T02:19:01.071Z,2.80
2019-03-15T02:21:30.583Z,3.40
2019-03-15T02:24:00.138Z,2.43
2019-03-15T02:26:29.698Z,2.87
2019-03-15T02:28:59.213Z,2.90
2019-03-15T02:31:28.699Z,3.20
2019-03-15T02:33:58.277Z,2.70
2019-03-15T02:36:27.744Z,3.27
2019-03-15T02:38:57.196Z,2.40
2019-03-15T02:41:26.675Z,2.97
2019-03-15T02:43:56.101Z,2.40
2019-03-15T02:46:25.931Z,2.50
2019-03-15T02:48:55.901Z,2.63
2019-03-15T02:51:25.366Z,2.33
2019-03-15T02:53:54.839Z,2.27
2019-03-15T02:56:24.313Z,2.50
2019-03-15T02:58:54.188Z,2.47
2019-03-15T03:01:23.774Z,2.30
2019-03-15T03:03:53.193Z,2.30
2019-03-15T03:06:22.727Z,2.20
2019-03-15T03:08:52.755Z,2.80
2019-03-15T03:11:22.352Z,2.13
2019-03-15T03:13:51.796Z,2.87
2019-03-15T03:16:21.394Z,2.50
2019-03-15T03:18:50.933Z,2.53
2019-03-15T03:21:20.551Z,2.60
2019-03-15T03:23:50.064Z,3.00
2019-03-15T03:26:19.535Z,2.70
2019-03-15T03:28:51.558Z,1.75
2019-03-15T03:31:20.925Z,2.47
2019-03-15T03:33:50.561Z,2.87
2019-03-15T03:36:20.024Z,2.93
2019-03-15T03:38:49.678Z,2.70
2019-03-15T03:41:19.143Z,2.73
2019-03-15T03:43:48.578Z,2.00
2019-03-15T03:46:18.015Z,2.70
2019-03-15T03:48:47.580Z,2.73
2019-03-15T03:51:17.016Z,2.97
2019-03-15T03:53:46.492Z,2.67
2019-03-15T03:56:16.086Z,2.37
2019-03-15T03:58:45.622Z,2.70
2019-03-15T04:01:15.131Z,3.00
2019-03-15T04:03:44.673Z,2.30
2019-03-15T04:06:14.341Z,2.52
2019-03-15T04:08:44.562Z,2.85
2019-03-15T04:11:14.164Z,2.63
2019-03-15T04:13:43.774Z,2.97
2019-03-15T04:16:13.389Z,2.57
2019-03-15T04:18:42.929Z,3.00
2019-03-15T04:21:12.696Z,2.30
2019-03-15T04:23:41.989Z,2.20
2019-03-15T04:26:11.701Z,2.10
2019-03-15T04:28:41.342Z,2.03
2019-03-15T04:31:11.111Z,2.30
2019-03-15T04:33:40.716Z,2.20
2019-03-15T04:36:10.244Z,2.12
2019-03-15T04:38:39.819Z,2.67
2019-03-15T04:41:09.272Z,2.23
2019-03-15T04:43:38.830Z,2.77
2019-03-15T04:46:08.348Z,2.50
2019-03-15T04:48:38.377Z,2.65
2019-03-15T04:51:07.896Z,2.93
2019-03-15T04:53:37.316Z,3.00
2019-03-15T04:56:06.756Z,2.70
2019-03-15T04:58:36.216Z,2.20
2019-03-15T05:01:05.728Z,2.90
2019-03-15T05:03:35.205Z,2.30
2019-03-15T05:06:04.835Z,2.77
2019-03-15T05:08:34.343Z,2.27
2019-03-15T05:11:03.932Z,3.07
2019-03-15T05:13:33.379Z,3.37
2019-03-15T05:16:02.934Z,5.40
2019-03-15T05:18:32.646Z,4.90
2019-03-15T05:21:02.255Z,5.07
2019-03-15T05:23:31.778Z,9.10
2019-03-15T05:26:01.329Z,9.08
2019-03-15T05:28:30.976Z,5.73
2019-03-15T05:31:00.556Z,3.40
2019-03-15T05:33:30.087Z,3.22
2019-03-15T05:35:59.709Z,3.47
2019-03-15T05:38:29.349Z,3.60
2019-03-15T05:40:59.512Z,2.93
2019-03-15T05:43:28.910Z,3.42
2019-03-15T05:45:58.456Z,3.85
2019-03-15T05:48:27.935Z,2.80
2019-03-15T05:50:57.423Z,4.53
2019-03-15T05:53:27.005Z,3.40
2019-03-15T05:55:56.650Z,3.23
2019-03-15T05:58:26.875Z,3.30
2019-03-15T06:00:56.355Z,4.03
2019-03-15T06:03:25.874Z,3.92
2019-03-15T06:05:55.332Z,3.70
2019-03-15T06:08:27.426Z,3.47
2019-03-15T06:10:55.960Z,3.30
2019-03-15T06:13:25.439Z,5.07
2019-03-15T06:15:54.973Z,4.10
2019-03-15T06:18:24.244Z,5.13
2019-03-15T06:20:53.756Z,3.87
2019-03-15T06:23:23.282Z,3.80
2019-03-15T06:25:52.556Z,5.35
2019-03-15T06:28:22.002Z,3.70
2019-03-15T06:30:51.640Z,3.80
2019-03-15T06:33:20.890Z,4.23
2019-03-15T06:35:50.451Z,4.20
2019-03-15T06:38:19.990Z,3.87
2019-03-15T06:40:49.547Z,3.80
2019-03-15T06:43:19.022Z,4.62
2019-03-15T06:45:48.547Z,4.08
2019-03-15T06:48:18.025Z,3.90
2019-03-15T06:50:47.493Z,3.20
2019-03-15T06:53:16.971Z,3.63
2019-03-15T06:55:46.618Z,3.70
2019-03-15T06:58:16.093Z,4.17
2019-03-15T07:00:45.634Z,3.67
2019-03-15T07:03:55.134Z,3.80
2019-03-15T07:06:24.588Z,3.07
2019-03-15T07:08:54.121Z,3.30
2019-03-15T07:11:23.603Z,4.03
2019-03-15T07:13:53.106Z,3.20
2019-03-15T07:16:22.710Z,4.50
2019-03-15T07:18:52.325Z,3.23
2019-03-15T07:21:21.839Z,3.53
2019-03-15T07:23:51.550Z,4.15
2019-03-15T07:26:21.065Z,3.57
2019-03-15T07:28:50.658Z,4.80
2019-03-15T07:31:20.226Z,3.37
2019-03-15T07:33:49.860Z,3.60
2019-03-15T07:36:19.533Z,4.50
2019-03-15T07:38:49.026Z,3.10
2019-03-15T07:41:18.630Z,3.43
2019-03-15T07:43:48.090Z,3.87
2019-03-15T07:46:17.033Z,4.10
2019-03-15T07:48:46.522Z,4.77
2019-03-15T07:51:15.976Z,4.30
2019-03-15T07:53:45.549Z,4.00
2019-03-15T07:56:15.007Z,4.60
2019-03-15T07:58:44.564Z,4.47
2019-03-15T08:01:14.103Z,4.20
2019-03-15T08:03:43.756Z,4.70
2019-03-15T08:06:13.212Z,5.17
2019-03-15T08:08:42.821Z,6.13
2019-03-15T08:11:12.394Z,5.50
2019-03-15T08:13:42.012Z,11.10
2019-03-15T08:16:11.605Z,7.28
2019-03-15T08:18:41.168Z,6.37
2019-03-15T08:21:10.846Z,7.00
2019-03-15T08:23:40.210Z,6.93
2019-03-15T08:26:10.130Z,7.20
2019-03-15T08:28:39.706Z,6.73
2019-03-15T08:31:09.407Z,7.20
2019-03-15T08:33:38.871Z,6.43
2019-03-15T08:36:08.990Z,5.75
2019-03-15T08:38:47.525Z,5.43
2019-03-15T08:41:09.847Z,6.17
2019-03-15T08:43:39.449Z,5.03
2019-03-15T08:46:09.142Z,4.90
2019-03-15T08:48:38.590Z,4.55
2019-03-15T08:51:10.610Z,6.10
2019-03-15T08:53:40.055Z,4.13
2019-03-15T08:56:09.858Z,4.47
2019-03-15T08:58:39.475Z,4.95
2019-03-15T09:01:10.931Z,5.00
2019-03-15T09:03:40.444Z,4.73
2019-03-15T09:06:10.209Z,3.87
2019-03-15T09:08:39.758Z,4.10
2019-03-15T09:11:09.812Z,5.10
2019-03-15T09:13:39.280Z,5.03
2019-03-15T09:16:09.013Z,4.30
2019-03-15T09:18:38.449Z,4.58
2019-03-15T09:21:08.264Z,8.23
2019-03-15T09:23:37.861Z,5.20
2019-03-15T09:26:10.334Z,5.53
2019-03-15T09:28:38.940Z,4.65
2019-03-15T09:31:08.878Z,4.90
2019-03-15T09:33:38.432Z,4.67
2019-03-15T09:36:08.478Z,5.43
2019-03-15T09:38:37.905Z,4.50
2019-03-15T09:41:08.111Z,5.37
2019-03-15T09:43:37.838Z,5.00
2019-03-15T09:46:07.468Z,4.87
2019-03-15T09:48:37.175Z,5.15
2019-03-15T09:51:06.707Z,4.70
2019-03-15T09:53:36.229Z,5.70
2019-03-15T09:56:05.828Z,5.47
2019-03-15T09:58:35.540Z,5.87
2019-03-15T10:01:05.263Z,5.07
2019-03-15T10:03:35.159Z,4.93
2019-03-15T10:06:14.298Z,4.70
2019-03-15T10:08:35.883Z,4.50
2019-03-15T10:11:05.540Z,5.07
2019-03-15T10:13:34.994Z,5.20
2019-03-15T10:16:04.680Z,4.60
2019-03-15T10:18:34.256Z,5.13
2019-03-15T10:21:04.051Z,4.20
2019-03-15T10:23:33.550Z,4.65
2019-03-15T10:26:03.161Z,4.08
2019-03-15T10:28:32.775Z,4.57
2019-03-15T10:31:02.223Z,3.50
2019-03-15T10:33:31.823Z,3.37
2019-03-15T10:36:01.416Z,3.83
2019-03-15T10:38:31.084Z,3.33
2019-03-15T10:41:01.424Z,4.15
2019-03-15T10:43:31.181Z,4.30
2019-03-15T10:46:00.808Z,3.70
2019-03-15T10:48:30.387Z,4.45
2019-03-15T10:50:59.929Z,3.90
2019-03-15T10:53:29.588Z,3.80
2019-03-15T10:56:00.592Z,3.53
2019-03-15T10:58:30.139Z,3.80
2019-03-15T11:01:00.283Z,3.42
2019-03-15T11:03:30.349Z,3.40
2019-03-15T11:06:00.032Z,3.33
2019-03-15T11:08:30.089Z,3.35
2019-03-15T11:11:00.361Z,2.90
2019-03-15T11:13:30.200Z,2.80
2019-03-15T11:16:00.426Z,2.73
2019-03-15T11:18:30.648Z,2.75
2019-03-15T11:21:00.887Z,2.63
2019-03-15T11:23:31.298Z,2.90
2019-03-15T11:26:13.119Z,2.70
2019-03-15T11:28:33.281Z,2.57
2019-03-15T11:31:02.732Z,2.05
2019-03-15T11:33:32.256Z,2.03
2019-03-15T11:36:01.870Z,2.63
2019-03-15T11:38:31.452Z,2.10
2019-03-15T11:41:01.988Z,2.25
2019-03-15T11:43:31.594Z,2.07
2019-03-15T11:46:01.307Z,1.80
2019-03-15T11:48:30.643Z,1.70
2019-03-15T11:51:00.348Z,1.60
2019-03-15T11:53:29.941Z,2.00
2019-03-15T11:55:59.520Z,2.20
2019-03-15T11:58:29.044Z,2.20
2019-03-15T12:00:58.497Z,1.70
2019-03-15T12:03:28.072Z,1.50
2019-03-15T12:05:57.525Z,1.80
2019-03-15T12:08:26.977Z,1.60
2019-03-15T12:10:56.442Z,2.08
2019-03-15T12:13:25.902Z,1.67
2019-03-15T12:15:55.389Z,2.13
2019-03-15T12:18:24.917Z,1.57
2019-03-15T12:20:54.386Z,1.70
2019-03-15T12:23:23.867Z,1.30
2019-03-15T12:25:54.865Z,1.70
2019-03-15T12:28:24.335Z,1.80
2019-03-15T12:30:53.798Z,2.83
2019-03-15T12:33:23.239Z,1.22
2019-03-15T12:35:52.739Z,1.30
2019-03-15T12:38:22.355Z,1.10
2019-03-15T12:40:51.549Z,0.80
2019-03-15T12:43:21.178Z,0.90
2019-03-15T12:45:50.781Z,0.73
2019-03-15T12:48:20.295Z,0.90
2019-03-15T12:50:49.841Z,0.70
2019-03-15T12:53:19.441Z,1.00
2019-03-15T12:55:48.936Z,0.70
2019-03-15T12:58:18.425Z,0.90
2019-03-15T13:00:47.869Z,0.80
2019-03-15T13:03:17.365Z,0.87
2019-03-15T13:05:46.820Z,0.80
2019-03-15T13:08:16.378Z,0.70
2019-03-15T13:10:45.829Z,0.60
2019-03-15T13:13:15.320Z,0.80
2019-03-15T13:15:44.779Z,0.70
2019-03-15T13:18:14.279Z,0.70
2019-03-15T13:20:43.734Z,0.80
2019-03-15T13:23:13.181Z,1.00
2019-03-15T13:25:42.706Z,0.70
2019-03-15T13:28:12.260Z,0.80
2019-03-15T13:30:41.710Z,0.77
2019-03-15T13:33:20.317Z,0.80
2019-03-15T13:35:42.410Z,0.90
2019-03-15T13:38:11.905Z,0.60
2019-03-15T13:40:41.514Z,0.70
2019-03-15T13:43:11.331Z,1.10
2019-03-15T13:45:41.015Z,0.80
2019-03-15T13:48:10.439Z,0.90
2019-03-15T13:50:39.988Z,0.87
2019-03-15T13:53:09.902Z,1.03
2019-03-15T13:55:39.485Z,0.80
2019-03-15T13:58:09.332Z,1.00
2019-03-15T14:00:38.725Z,0.80
2019-03-15T14:03:08.235Z,0.90
2019-03-15T14:05:37.661Z,1.20
2019-03-15T14:08:11.955Z,0.80
2019-03-15T14:13:53.370Z,0.93
2019-03-15T14:16:23.010Z,0.90
2019-03-15T14:18:52.615Z,0.80
2019-03-15T14:21:22.222Z,0.80
2019-03-15T14:23:51.720Z,0.70
2019-03-15T14:26:21.288Z,0.90
2019-03-15T14:28:50.973Z,0.80
2019-03-15T14:31:21.726Z,0.80
2019-03-15T14:33:51.384Z,0.80
2019-03-15T14:36:20.915Z,0.80
2019-03-15T14:38:50.760Z,0.80
2019-03-15T14:41:20.515Z,0.87
2019-03-15T14:43:50.042Z,0.93
2019-03-15T14:46:19.668Z,0.80
2019-03-15T14:48:49.100Z,0.80
2019-03-15T14:51:18.644Z,0.70
2019-03-15T14:53:48.035Z,0.80
2019-03-15T14:56:17.302Z,0.70
2019-03-15T14:58:46.740Z,0.90
2019-03-15T15:01:16.220Z,0.80
2019-03-15T15:03:45.734Z,0.80
2019-03-15T15:06:15.313Z,1.00
2019-03-15T15:08:44.776Z,0.90
2019-03-15T15:11:14.339Z,0.80
2019-03-15T15:13:43.781Z,0.80
2019-03-15T15:16:13.338Z,0.60
2019-03-15T15:18:42.921Z,0.70
2019-03-15T15:21:12.651Z,0.73
2019-03-15T15:23:42.107Z,0.70
2019-03-15T15:26:11.703Z,0.90
2019-03-15T15:28:41.422Z,0.87
2019-03-15T15:31:11.133Z,0.80
2019-03-15T15:33:40.762Z,0.80
2019-03-15T15:36:10.334Z,0.85
2019-03-15T15:38:40.003Z,0.90
2019-03-15T15:41:09.899Z,0.83
2019-03-15T15:43:39.531Z,0.80
2019-03-15T15:46:09.489Z,0.70
2019-03-15T15:48:38.913Z,0.70
2019-03-15T15:51:08.511Z,0.70
2019-03-15T15:53:37.927Z,0.97
2019-03-15T15:56:07.897Z,0.98
2019-03-15T15:58:37.381Z,0.90
2019-03-15T16:01:06.877Z,1.40
2019-03-15T16:03:36.287Z,1.05
2019-03-15T16:06:05.820Z,1.10
2019-03-15T16:08:35.423Z,1.00
2019-03-15T16:11:04.973Z,0.90
2019-03-15T16:13:34.413Z,0.80
2019-03-15T16:16:04.040Z,0.90
2019-03-15T16:18:34.102Z,0.70
2019-03-15T16:21:03.395Z,0.80
2019-03-15T16:23:32.909Z,1.43
2019-03-15T16:26:02.640Z,0.90
2019-03-15T16:28:35.853Z,0.80
2019-03-15T16:31:03.661Z,1.00
2019-03-15T16:33:33.120Z,0.80
2019-03-15T16:36:02.670Z,0.90
2019-03-15T16:38:32.268Z,0.80
2019-03-15T16:41:01.925Z,0.77
2019-03-15T16:43:31.628Z,0.70
2019-03-15T16:46:01.129Z,0.80
2019-03-15T16:48:30.291Z,0.70
2019-03-15T16:50:59.886Z,0.70
2019-03-15T16:53:29.167Z,0.70
2019-03-15T16:55:58.626Z,0.80
2019-03-15T16:58:28.798Z,0.82
2019-03-15T17:00:58.404Z,0.70
2019-03-15T17:03:27.972Z,0.80
2019-03-15T17:05:57.148Z,0.73
2019-03-15T17:08:27.976Z,0.70
2019-03-15T17:10:57.424Z,0.70
2019-03-15T17:13:26.689Z,0.80
2019-03-15T17:15:56.211Z,0.80
2019-03-15T17:18:26.081Z,0.80
2019-03-15T17:20:55.665Z,0.70
2019-03-15T17:23:25.138Z,0.80
2019-03-15T17:25:54.719Z,0.80
2019-03-15T17:28:24.152Z,0.80
2019-03-15T17:30:53.683Z,0.70
2019-03-15T17:33:23.309Z,0.90
2019-03-15T17:35:52.710Z,0.80
2019-03-15T17:38:22.832Z,0.80
2019-03-15T17:40:52.084Z,0.93
2019-03-15T17:43:21.806Z,0.80
2019-03-15T17:45:51.053Z,0.90
2019-03-15T17:48:20.705Z,1.10
2019-03-15T17:50:50.277Z,0.80
2019-03-15T17:53:19.899Z,0.80
2019-03-15T17:55:49.583Z,1.00
2019-03-15T17:58:20.098Z,1.10
2019-03-15T18:00:51.210Z,0.70
2019-03-15T18:03:21.992Z,0.80
2019-03-15T18:05:51.646Z,1.00
2019-03-15T18:08:21.593Z,1.20
2019-03-15T18:10:51.203Z,0.77
2019-03-15T18:13:20.922Z,0.70
2019-03-15T18:15:50.558Z,1.00
2019-03-15T18:18:20.179Z,0.90
2019-03-15T18:20:49.836Z,0.90
2019-03-15T18:23:19.473Z,0.80
2019-03-15T18:25:49.163Z,0.80
2019-03-15T18:28:18.713Z,1.12
2019-03-15T18:30:48.193Z,0.80
2019-03-15T18:33:17.743Z,1.40
2019-03-15T18:35:47.201Z,0.90
2019-03-15T18:38:16.651Z,0.90
2019-03-15T18:40:46.199Z,0.80
2019-03-15T18:43:15.778Z,0.90
2019-03-15T18:45:45.331Z,1.00
2019-03-15T18:48:15.003Z,0.90
2019-03-15T18:50:44.491Z,0.70
2019-03-15T18:53:14.073Z,0.90
2019-03-15T18:55:43.534Z,0.75
2019-03-15T18:58:13.140Z,0.90
2019-03-15T19:00:42.604Z,0.83
2019-03-15T19:03:12.486Z,0.80
2019-03-15T19:05:42.002Z,0.97
2019-03-15T19:08:11.992Z,0.93
2019-03-15T19:10:41.604Z,0.80
2019-03-15T19:13:11.658Z,0.80
2019-03-15T19:15:43.772Z,0.90
2019-03-15T19:18:12.836Z,0.93
2019-03-15T19:20:42.653Z,0.80
2019-03-15T19:23:12.605Z,0.80
2019-03-15T19:25:41.540Z,0.90
2019-03-15T19:28:11.606Z,1.00
2019-03-15T19:30:41.293Z,0.97
2019-03-15T19:33:10.824Z,0.93
2019-03-15T19:35:40.533Z,0.80
2019-03-15T19:38:09.987Z,0.80
2019-03-15T19:40:39.568Z,0.80
2019-03-15T19:43:09.049Z,0.80
2019-03-15T19:45:40.246Z,0.90
2019-03-15T19:48:09.547Z,0.90
2019-03-15T19:50:39.112Z,0.77
2019-03-15T19:53:08.656Z,0.93
2019-03-15T19:55:38.203Z,0.80
2019-03-15T19:58:07.734Z,0.90
2019-03-15T20:00:37.276Z,0.80
2019-03-15T20:03:06.818Z,0.83
2019-03-15T20:05:36.322Z,0.90
2019-03-15T20:08:05.839Z,0.70
2019-03-15T20:10:35.382Z,0.80
2019-03-15T20:13:04.898Z,0.83
2019-03-15T20:15:34.336Z,0.80
2019-03-15T20:18:03.985Z,0.87
2019-03-15T20:20:33.547Z,0.83
2019-03-15T20:23:03.081Z,0.90
2019-03-15T20:25:32.697Z,0.70
2019-03-15T20:28:04.073Z,0.80
2019-03-15T20:30:33.588Z,0.80
2019-03-15T20:33:03.201Z,0.90
2019-03-15T20:35:32.730Z,0.90
2019-03-15T20:38:02.467Z,0.90
2019-03-15T20:40:33.052Z,0.90
2019-03-15T20:43:02.510Z,0.80
2019-03-15T20:45:31.691Z,1.10
2019-03-15T20:48:01.308Z,0.80
2019-03-15T20:50:30.952Z,1.00
2019-03-15T20:53:08.629Z,0.80
2019-03-15T20:55:31.874Z,0.80
2019-03-15T20:58:01.473Z,0.80
2019-03-15T21:00:35.978Z,1.00
2019-03-15T21:03:02.228Z,1.17
2019-03-15T21:05:31.813Z,0.90
2019-03-15T21:08:01.484Z,0.90
2019-03-15T21:10:31.106Z,0.80
2019-03-15T21:13:00.661Z,0.90
2019-03-15T21:15:30.224Z,0.80
2019-03-15T21:17:59.809Z,0.80
2019-03-15T21:20:29.283Z,0.80
2019-03-15T21:22:58.826Z,0.70
2019-03-15T21:25:28.256Z,0.80
2019-03-15T21:27:57.764Z,0.85
2019-03-15T21:30:27.980Z,0.80
2019-03-15T21:32:57.503Z,0.80
2019-03-15T21:35:27.038Z,0.90
2019-03-15T21:37:56.494Z,0.75
2019-03-15T21:40:25.679Z,0.80
2019-03-15T21:42:55.273Z,0.80
2019-03-15T21:45:24.754Z,0.83
2019-03-15T21:51:09.827Z,1.02
2019-03-15T21:53:39.446Z,0.90
2019-03-15T21:56:09.620Z,1.00
2019-03-15T21:58:39.174Z,0.90
2019-03-15T22:01:08.707Z,0.93
2019-03-15T22:03:38.250Z,0.90
2019-03-15T22:06:07.695Z,0.90
2019-03-15T22:08:37.232Z,0.80
2019-03-15T22:11:20.128Z,0.93
2019-03-15T22:13:38.361Z,0.83
2019-03-15T22:16:07.863Z,0.73
2019-03-15T22:18:37.068Z,0.90
2019-03-15T22:21:06.592Z,0.90
2019-03-15T22:23:36.146Z,1.10
2019-03-15T22:26:06.584Z,0.90
2019-03-15T22:28:36.032Z,1.90
2019-03-15T22:31:15.860Z,1.50
2019-03-15T22:33:36.751Z,1.30
2019-03-15T22:36:06.384Z,1.20
2019-03-15T22:38:35.951Z,0.80
2019-03-15T22:41:05.409Z,0.90
2019-03-15T22:43:34.902Z,1.00
2019-03-15T22:46:04.417Z,0.93
2019-03-15T22:48:34.118Z,1.10
2019-03-15T22:51:03.772Z,0.80
2019-03-15T22:53:33.189Z,0.80
2019-03-15T22:56:02.770Z,0.70
2019-03-15T22:58:32.435Z,0.80
2019-03-15T23:01:02.009Z,0.80
2019-03-15T23:03:31.530Z,0.90
2019-03-15T23:06:01.079Z,0.80
2019-03-15T23:08:30.672Z,0.80
2019-03-15T23:11:00.203Z,0.82
2019-03-15T23:13:29.608Z,0.90
2019-03-15T23:15:59.160Z,0.80
2019-03-15T23:18:28.655Z,0.90
2019-03-15T23:20:58.279Z,1.10
2019-03-15T23:23:27.803Z,0.90
2019-03-15T23:25:57.266Z,0.87
2019-03-15T23:28:26.450Z,1.10
2019-03-15T23:30:56.002Z,0.80
2019-03-15T23:33:25.567Z,0.80
2019-03-15T23:35:55.212Z,1.20
2019-03-15T23:38:24.705Z,1.10
2019-03-15T23:40:56.102Z,0.80
2019-03-15T23:43:25.572Z,0.95
2019-03-15T23:45:55.373Z,1.00
2019-03-15T23:48:24.578Z,0.80
2019-03-15T23:50:54.107Z,1.07
2019-03-15T23:53:23.594Z,1.07
2019-03-15T23:55:54.879Z,1.00
2019-03-15T23:58:24.223Z,1.13
